Buoy 52514

sailwx.info

Track history (hours):
 
Tides and Currents Weather Stations Pressure Air Temp Water Temp Dewpoint Dewpoint Depression Visibility Wind Speed Wind Dir Waves Ship Positions

Drifting buoy 52514

Last reported at 2016-Dec-09 22:00 UTC. Time now 2016-Dec-10 05:05 UTC.
Position N 26°36' E 138°56'.

Date/timePositionNaut miles runAvg speedWind from/ knotsBaromVisibWave heightAir tempDewpointWater temp
2016-Dec-09 22:00N 26°36' E 138°56'1 0.8
2016-Dec-09 21:00N 26°37' E 138°55'1 0.5
2016-Dec-09 20:00N 26°37' E 138°56'0 0.0
2016-Dec-09 19:00N 26°37' E 138°56'0 0.0
2016-Dec-09 18:00N 26°37' E 138°56'1 0.5
2016-Dec-09 17:00N 26°37' E 138°56'0 0.0
2016-Dec-09 16:00N 26°37' E 138°56'2 0.6
2016-Dec-09 12:00N 26°39' E 138°57'1 0.5
2016-Dec-09 11:00N 26°39' E 138°58'1 0.8
2016-Dec-09 10:00N 26°40' E 138°57'1 1.3
2016-Dec-09 09:00N 26°41' E 138°56'1 0.5
2016-Dec-09 08:00N 26°41' E 138°56'1 0.6
2016-Dec-09 07:00N 26°40' E 138°56'1 0.6
2016-Dec-09 06:00N 26°41' E 138°56'1 1.3
2016-Dec-09 05:00N 26°42' E 138°55'0 0.0
2016-Dec-09 04:00N 26°42' E 138°55'0 0.0
2016-Dec-09 03:00N 26°42' E 138°55'1 0.4
2016-Dec-09 01:00N 26°43' E 138°55'0 0.0
2016-Dec-09 00:00N 26°43' E 138°55'1 0.6
2016-Dec-08 23:00N 26°42' E 138°55'1 0.5
2016-Dec-08 22:00N 26°42' E 138°55'0 0.0
2016-Dec-08 21:00N 26°42' E 138°55'1 0.8
2016-Dec-08 20:00N 26°41' E 138°55'1 0.5
2016-Dec-08 19:00N 26°41' E 138°55'1 0.8
2016-Dec-08 18:00N 26°41' E 138°55'1 1.2
2016-Dec-08 17:00N 26°40' E 138°56'0 0.0
2016-Dec-08 16:00N 26°40' E 138°56'4 1.0
2016-Dec-08 12:00N 26°41' E 139°00'1 0.8
2016-Dec-08 11:00N 26°41' E 139°01'1 1.2
2016-Dec-08 10:00N 26°43' E 139°01'0 0.0
2016-Dec-08 09:00N 26°43' E 139°01'2 2.5
2016-Dec-08 08:00N 26°45' E 139°00'0 0.0
2016-Dec-08 07:00N 26°45' E 139°00'0 0.0
2016-Dec-08 06:00N 26°45' E 139°00'1 0.5
2016-Dec-08 05:00N 26°45' E 138°59'0 0.0
2016-Dec-08 04:00N 26°45' E 138°59'1 1.2
2016-Dec-08 03:00N 26°46' E 138°59'0 0.0
2016-Dec-08 01:00N 26°46' E 138°59'1 0.3
2016-Dec-07 22:00N 26°46' E 138°59'0 0.0
2016-Dec-07 21:00N 26°46' E 138°59'1 0.5
2016-Dec-07 20:00N 26°46' E 138°59'1 0.6
2016-Dec-07 19:00N 26°46' E 138°59'0 0.0
2016-Dec-07 18:00N 26°46' E 138°59'1 0.6
2016-Dec-07 17:00N 26°46' E 138°59'0 0.0
2016-Dec-07 16:00N 26°46' E 138°59'1 0.3
2016-Dec-07 13:00N 26°46' E 139°00'1 0.8
2016-Dec-07 12:00N 26°47' E 139°01'1 0.8
2016-Dec-07 11:00N 26°47' E 139°01'3 1.5
2016-Dec-07 09:00N 26°50' E 139°02'1 0.8
2016-Dec-07 08:00N 26°51' E 139°02'2 1.6
2016-Dec-07 07:00N 26°52' E 139°01'4 0.6
2016-Dec-07 00:00N 26°55' E 138°57'1 1.1
2016-Dec-06 23:00N 26°55' E 138°56'0 0.0
2016-Dec-06 22:00N 26°55' E 138°56'1 0.5
2016-Dec-06 21:00N 26°55' E 138°55'1 0.5
2016-Dec-06 20:00N 26°55' E 138°56'0 0.0
2016-Dec-06 19:00N 26°55' E 138°56'0 0.0
2016-Dec-06 18:00N 26°55' E 138°56'0 0.0
2016-Dec-06 17:00N 26°55' E 138°56'0 0.0
2016-Dec-06 16:00N 26°55' E 138°56'2 0.4
2016-Dec-06 12:00N 26°55' E 138°58'1 0.6
2016-Dec-06 11:00N 26°55' E 138°58'1 0.8
2016-Dec-06 10:00N 26°56' E 138°58'1 1.3
2016-Dec-06 09:00N 26°57' E 138°59'1 0.6
2016-Dec-06 08:00N 26°58' E 138°59'4 4.3
2016-Dec-06 07:00N 27°02' E 138°58'0 0.0
2016-Dec-06 04:00N 27°02' E 138°58'5 1.7
2016-Dec-06 01:00N 27°04' E 138°52'1 0.8
2016-Dec-06 00:00N 27°03' E 138°52'0 0.0
2016-Dec-05 23:00N 27°03' E 138°52'1 0.7
2016-Dec-05 21:00N 27°02' E 138°51'1 0.5
2016-Dec-05 20:00N 27°02' E 138°50'1 0.6
2016-Dec-05 19:00N 27°01' E 138°50'1 0.5
2016-Dec-05 18:00N 27°01' E 138°50'0 0.0
2016-Dec-05 17:00N 27°01' E 138°50'0 0.0
2016-Dec-05 16:00N 27°01' E 138°50'0 0.0
2016-Dec-05 13:00N 27°01' E 138°50'0 0.0
2016-Dec-05 12:00N 27°01' E 138°50'0 0.0
2016-Dec-05 11:00N 27°01' E 138°50'1 1.3
2016-Dec-05 10:00N 27°02' E 138°50'0 0.0
2016-Dec-05 09:00N 27°02' E 138°50'1 1.3
2016-Dec-05 08:00N 27°04' E 138°51'0 0.0
2016-Dec-05 07:00N 27°04' E 138°51'6 1.0
2016-Dec-05 01:00N 27°07' E 138°46'0 0.0
2016-Dec-05 00:00N 27°07' E 138°46'1 1.2
2016-Dec-04 23:00N 27°07' E 138°44'0 0.0
2016-Dec-04 22:00N 27°07' E 138°44'0 0.0
2016-Dec-04 21:00N 27°07' E 138°44'0 0.0
2016-Dec-04 20:00N 27°07' E 138°44'1 1.3
2016-Dec-04 19:00N 27°05' E 138°44'0 0.0
2016-Dec-04 18:00N 27°05' E 138°44'0 0.0
2016-Dec-04 17:00N 27°05' E 138°44'0 0.0
2016-Dec-04 16:00N 27°05' E 138°44'3 0.7
2016-Dec-04 12:00N 27°03' E 138°46'1 0.5
2016-Dec-04 11:00N 27°03' E 138°46'2 1.7
2016-Dec-04 10:00N 27°04' E 138°48'0 0.0
2016-Dec-04 09:00N 27°04' E 138°48'1 1.1
2016-Dec-04 08:00N 27°04' E 138°49'2 1.6
2016-Dec-04 07:00N 27°05' E 138°50'0 0.0
2016-Dec-04 05:00N 27°05' E 138°50'0 0.0
2016-Dec-04 04:00N 27°05' E 138°50'1 0.2
2016-Dec-03 23:00N 27°05' E 138°49'1 0.4
2016-Dec-03 21:00N 27°05' E 138°50'1 0.7
2016-Dec-03 19:00N 27°06' E 138°50'1 1.3
2016-Dec-03 18:00N 27°05' E 138°50'0 0.0
2016-Dec-03 17:00N 27°05' E 138°50'2 0.3
2016-Dec-03 12:00N 27°04' E 138°51'1 0.6
2016-Dec-03 11:00N 27°03' E 138°51'6 1.0
2016-Dec-03 05:00N 27°07' E 138°56'0 0.0
2016-Dec-03 04:00N 27°07' E 138°56'5 1.2
2016-Dec-03 00:00N 27°11' E 138°56'2 1.8
2016-Dec-02 23:00N 27°13' E 138°56'0 0.0
2016-Dec-02 21:00N 27°13' E 138°56'1 1.2
2016-Dec-02 20:00N 27°14' E 138°56'1 1.3
2016-Dec-02 19:00N 27°16' E 138°55'0 0.0
2016-Dec-02 18:00N 27°16' E 138°55'0 0.0
2016-Dec-02 17:00N 27°16' E 138°55'1 0.2
2016-Dec-02 13:00N 27°16' E 138°55'1 0.6
2016-Dec-02 12:00N 27°16' E 138°55'1 0.5
2016-Dec-02 11:00N 27°16' E 138°55'2 1.6
2016-Dec-02 10:00N 27°16' E 138°57'1 0.8
2016-Dec-02 09:00N 27°16' E 138°58'1 1.2
2016-Dec-02 08:00N 27°17' E 138°59'4 2.0
2016-Dec-02 06:00N 27°19' E 139°02'1 0.5
2016-Dec-02 05:00N 27°19' E 139°02'0 0.0
2016-Dec-02 04:00N 27°19' E 139°02'8 2.7
2016-Dec-02 01:00N 27°27' E 139°04'0 0.0
2016-Dec-02 00:00N 27°27' E 139°04'2 1.9
2016-Dec-01 23:00N 27°29' E 139°04'0 0.0
2016-Dec-01 22:00N 27°29' E 139°04'2 1.8
2016-Dec-01 21:00N 27°31' E 139°04'1 0.8
2016-Dec-01 20:00N 27°31' E 139°03'1 1.3
2016-Dec-01 19:00N 27°32' E 139°02'0 0.0
2016-Dec-01 18:00N 27°32' E 139°02'0 0.0
2016-Dec-01 17:00N 27°32' E 139°02'5 4.8
2016-Dec-01 16:00N 27°35' E 138°58'2 0.4
2016-Dec-01 12:00N 27°35' E 138°56'0 0.0
2016-Dec-01 11:00N 27°35' E 138°56'1 0.8
2016-Dec-01 10:00N 27°34' E 138°57'0 0.0
2016-Dec-01 08:00N 27°34' E 138°57'1 0.8
2016-Dec-01 07:00N 27°35' E 138°58'1 0.3
2016-Dec-01 05:00N 27°35' E 138°58'0 0.0
2016-Dec-01 04:00N 27°35' E 138°58'0 0.0
2016-Dec-01 03:00N 27°35' E 138°58'2 1.2
2016-Dec-01 01:00N 27°38' E 138°58'1 0.5
2016-Dec-01 00:00N 27°38' E 138°58'1 1.3
2016-Nov-30 23:00N 27°39' E 138°58'1 0.8
2016-Nov-30 22:00N 27°40' E 138°57'0 0.0
2016-Nov-30 21:00N 27°40' E 138°57'2 1.9
2016-Nov-30 20:00N 27°41' E 138°58'0 0.0
2016-Nov-30 19:00N 27°41' E 138°58'1 0.8
2016-Nov-30 18:00N 27°42' E 138°57'2 2.1
2016-Nov-30 17:00N 27°44' E 138°56'0 0.0
2016-Nov-30 16:00N 27°44' E 138°56'2 0.7
2016-Nov-30 13:00N 27°46' E 138°55'0 0.0
2016-Nov-30 12:00N 27°46' E 138°55'1 0.5
2016-Nov-30 11:00N 27°46' E 138°54'1 0.6
2016-Nov-30 10:00N 27°46' E 138°54'1 0.8
2016-Nov-30 09:00N 27°46' E 138°55'3 0.7
2016-Nov-30 05:00N 27°46' E 138°58'0 0.0
2016-Nov-30 04:00N 27°46' E 138°58'0 0.0
2016-Nov-30 03:00N 27°46' E 138°58'3 1.4
2016-Nov-30 01:00N 27°47' E 139°00'1 0.6
2016-Nov-30 00:00N 27°48' E 139°00'1 0.8
2016-Nov-29 23:00N 27°49' E 139°01'1 0.6
2016-Nov-29 22:00N 27°49' E 139°01'  
Track history (hours):
 
Tides and Currents Weather Stations Pressure Air Temp Water Temp Dewpoint Dewpoint Depression Visibility Wind Speed Wind Dir Waves Ship Positions

Drifting buoy 52514

Last reported at 2016-Dec-09 22:00 UTC. Time now 2016-Dec-10 05:05 UTC.
Position N 26°36' E 138°56'.

Date/timePositionNaut miles runAvg speedWind from/ knotsBaromVisibWave heightAir tempDewpointWater temp
2016-Dec-09 22:00N 26°36' E 138°56'1 0.8
2016-Dec-09 21:00N 26°37' E 138°55'1 0.5
2016-Dec-09 20:00N 26°37' E 138°56'0 0.0
2016-Dec-09 19:00N 26°37' E 138°56'0 0.0
2016-Dec-09 18:00N 26°37' E 138°56'1 0.5
2016-Dec-09 17:00N 26°37' E 138°56'0 0.0
2016-Dec-09 16:00N 26°37' E 138°56'2 0.6
2016-Dec-09 12:00N 26°39' E 138°57'1 0.5
2016-Dec-09 11:00N 26°39' E 138°58'1 0.8
2016-Dec-09 10:00N 26°40' E 138°57'1 1.3
2016-Dec-09 09:00N 26°41' E 138°56'1 0.5
2016-Dec-09 08:00N 26°41' E 138°56'1 0.6
2016-Dec-09 07:00N 26°40' E 138°56'1 0.6
2016-Dec-09 06:00N 26°41' E 138°56'1 1.3
2016-Dec-09 05:00N 26°42' E 138°55'0 0.0
2016-Dec-09 04:00N 26°42' E 138°55'0 0.0
2016-Dec-09 03:00N 26°42' E 138°55'1 0.4
2016-Dec-09 01:00N 26°43' E 138°55'0 0.0
2016-Dec-09 00:00N 26°43' E 138°55'1 0.6
2016-Dec-08 23:00N 26°42' E 138°55'1 0.5
2016-Dec-08 22:00N 26°42' E 138°55'0 0.0
2016-Dec-08 21:00N 26°42' E 138°55'1 0.8
2016-Dec-08 20:00N 26°41' E 138°55'1 0.5
2016-Dec-08 19:00N 26°41' E 138°55'1 0.8
2016-Dec-08 18:00N 26°41' E 138°55'1 1.2
2016-Dec-08 17:00N 26°40' E 138°56'0 0.0
2016-Dec-08 16:00N 26°40' E 138°56'4 1.0
2016-Dec-08 12:00N 26°41' E 139°00'1 0.8
2016-Dec-08 11:00N 26°41' E 139°01'1 1.2
2016-Dec-08 10:00N 26°43' E 139°01'0 0.0
2016-Dec-08 09:00N 26°43' E 139°01'2 2.5
2016-Dec-08 08:00N 26°45' E 139°00'0 0.0
2016-Dec-08 07:00N 26°45' E 139°00'0 0.0
2016-Dec-08 06:00N 26°45' E 139°00'1 0.5
2016-Dec-08 05:00N 26°45' E 138°59'0 0.0
2016-Dec-08 04:00N 26°45' E 138°59'1 1.2
2016-Dec-08 03:00N 26°46' E 138°59'0 0.0
2016-Dec-08 01:00N 26°46' E 138°59'1 0.3
2016-Dec-07 22:00N 26°46' E 138°59'0 0.0
2016-Dec-07 21:00N 26°46' E 138°59'1 0.5
2016-Dec-07 20:00N 26°46' E 138°59'1 0.6
2016-Dec-07 19:00N 26°46' E 138°59'0 0.0
2016-Dec-07 18:00N 26°46' E 138°59'1 0.6
2016-Dec-07 17:00N 26°46' E 138°59'0 0.0
2016-Dec-07 16:00N 26°46' E 138°59'1 0.3
2016-Dec-07 13:00N 26°46' E 139°00'1 0.8
2016-Dec-07 12:00N 26°47' E 139°01'1 0.8
2016-Dec-07 11:00N 26°47' E 139°01'3 1.5
2016-Dec-07 09:00N 26°50' E 139°02'1 0.8
2016-Dec-07 08:00N 26°51' E 139°02'2 1.6
2016-Dec-07 07:00N 26°52' E 139°01'4 0.6
2016-Dec-07 00:00N 26°55' E 138°57'1 1.1
2016-Dec-06 23:00N 26°55' E 138°56'0 0.0
2016-Dec-06 22:00N 26°55' E 138°56'1 0.5
2016-Dec-06 21:00N 26°55' E 138°55'1 0.5
2016-Dec-06 20:00N 26°55' E 138°56'0 0.0
2016-Dec-06 19:00N 26°55' E 138°56'0 0.0
2016-Dec-06 18:00N 26°55' E 138°56'0 0.0
2016-Dec-06 17:00N 26°55' E 138°56'0 0.0
2016-Dec-06 16:00N 26°55' E 138°56'2 0.4
2016-Dec-06 12:00N 26°55' E 138°58'1 0.6
2016-Dec-06 11:00N 26°55' E 138°58'1 0.8
2016-Dec-06 10:00N 26°56' E 138°58'1 1.3
2016-Dec-06 09:00N 26°57' E 138°59'1 0.6
2016-Dec-06 08:00N 26°58' E 138°59'4 4.3
2016-Dec-06 07:00N 27°02' E 138°58'0 0.0
2016-Dec-06 04:00N 27°02' E 138°58'5 1.7
2016-Dec-06 01:00N 27°04' E 138°52'1 0.8
2016-Dec-06 00:00N 27°03' E 138°52'0 0.0
2016-Dec-05 23:00N 27°03' E 138°52'1 0.7
2016-Dec-05 21:00N 27°02' E 138°51'1 0.5
2016-Dec-05 20:00N 27°02' E 138°50'1 0.6
2016-Dec-05 19:00N 27°01' E 138°50'1 0.5
2016-Dec-05 18:00N 27°01' E 138°50'0 0.0
2016-Dec-05 17:00N 27°01' E 138°50'0 0.0
2016-Dec-05 16:00N 27°01' E 138°50'0 0.0
2016-Dec-05 13:00N 27°01' E 138°50'0 0.0
2016-Dec-05 12:00N 27°01' E 138°50'0 0.0
2016-Dec-05 11:00N 27°01' E 138°50'1 1.3
2016-Dec-05 10:00N 27°02' E 138°50'0 0.0
2016-Dec-05 09:00N 27°02' E 138°50'1 1.3
2016-Dec-05 08:00N 27°04' E 138°51'0 0.0
2016-Dec-05 07:00N 27°04' E 138°51'6 1.0
2016-Dec-05 01:00N 27°07' E 138°46'0 0.0
2016-Dec-05 00:00N 27°07' E 138°46'1 1.2
2016-Dec-04 23:00N 27°07' E 138°44'0 0.0
2016-Dec-04 22:00N 27°07' E 138°44'0 0.0
2016-Dec-04 21:00N 27°07' E 138°44'0 0.0
2016-Dec-04 20:00N 27°07' E 138°44'1 1.3
2016-Dec-04 19:00N 27°05' E 138°44'0 0.0
2016-Dec-04 18:00N 27°05' E 138°44'0 0.0
2016-Dec-04 17:00N 27°05' E 138°44'0 0.0
2016-Dec-04 16:00N 27°05' E 138°44'3 0.7
2016-Dec-04 12:00N 27°03' E 138°46'1 0.5
2016-Dec-04 11:00N 27°03' E 138°46'2 1.7
2016-Dec-04 10:00N 27°04' E 138°48'0 0.0
2016-Dec-04 09:00N 27°04' E 138°48'1 1.1
2016-Dec-04 08:00N 27°04' E 138°49'2 1.6
2016-Dec-04 07:00N 27°05' E 138°50'0 0.0
2016-Dec-04 05:00N 27°05' E 138°50'0 0.0
2016-Dec-04 04:00N 27°05' E 138°50'1 0.2
2016-Dec-03 23:00N 27°05' E 138°49'1 0.4
2016-Dec-03 21:00N 27°05' E 138°50'1 0.7
2016-Dec-03 19:00N 27°06' E 138°50'1 1.3
2016-Dec-03 18:00N 27°05' E 138°50'0 0.0
2016-Dec-03 17:00N 27°05' E 138°50'2 0.3
2016-Dec-03 12:00N 27°04' E 138°51'1 0.6
2016-Dec-03 11:00N 27°03' E 138°51'6 1.0
2016-Dec-03 05:00N 27°07' E 138°56'0 0.0
2016-Dec-03 04:00N 27°07' E 138°56'5 1.2
2016-Dec-03 00:00N 27°11' E 138°56'2 1.8
2016-Dec-02 23:00N 27°13' E 138°56'0 0.0
2016-Dec-02 21:00N 27°13' E 138°56'1 1.2
2016-Dec-02 20:00N 27°14' E 138°56'1 1.3
2016-Dec-02 19:00N 27°16' E 138°55'0 0.0
2016-Dec-02 18:00N 27°16' E 138°55'0 0.0
2016-Dec-02 17:00N 27°16' E 138°55'1 0.2
2016-Dec-02 13:00N 27°16' E 138°55'1 0.6
2016-Dec-02 12:00N 27°16' E 138°55'1 0.5
2016-Dec-02 11:00N 27°16' E 138°55'2 1.6
2016-Dec-02 10:00N 27°16' E 138°57'1 0.8
2016-Dec-02 09:00N 27°16' E 138°58'1 1.2
2016-Dec-02 08:00N 27°17' E 138°59'4 2.0
2016-Dec-02 06:00N 27°19' E 139°02'1 0.5
2016-Dec-02 05:00N 27°19' E 139°02'0 0.0
2016-Dec-02 04:00N 27°19' E 139°02'8 2.7
2016-Dec-02 01:00N 27°27' E 139°04'0 0.0
2016-Dec-02 00:00N 27°27' E 139°04'2 1.9
2016-Dec-01 23:00N 27°29' E 139°04'0 0.0
2016-Dec-01 22:00N 27°29' E 139°04'2 1.8
2016-Dec-01 21:00N 27°31' E 139°04'1 0.8
2016-Dec-01 20:00N 27°31' E 139°03'1 1.3
2016-Dec-01 19:00N 27°32' E 139°02'0 0.0
2016-Dec-01 18:00N 27°32' E 139°02'0 0.0
2016-Dec-01 17:00N 27°32' E 139°02'5 4.8
2016-Dec-01 16:00N 27°35' E 138°58'2 0.4
2016-Dec-01 12:00N 27°35' E 138°56'0 0.0
2016-Dec-01 11:00N 27°35' E 138°56'1 0.8
2016-Dec-01 10:00N 27°34' E 138°57'0 0.0
2016-Dec-01 08:00N 27°34' E 138°57'1 0.8
2016-Dec-01 07:00N 27°35' E 138°58'1 0.3
2016-Dec-01 05:00N 27°35' E 138°58'0 0.0
2016-Dec-01 04:00N 27°35' E 138°58'0 0.0
2016-Dec-01 03:00N 27°35' E 138°58'2 1.2
2016-Dec-01 01:00N 27°38' E 138°58'1 0.5
2016-Dec-01 00:00N 27°38' E 138°58'1 1.3
2016-Nov-30 23:00N 27°39' E 138°58'1 0.8
2016-Nov-30 22:00N 27°40' E 138°57'0 0.0
2016-Nov-30 21:00N 27°40' E 138°57'2 1.9
2016-Nov-30 20:00N 27°41' E 138°58'0 0.0
2016-Nov-30 19:00N 27°41' E 138°58'1 0.8
2016-Nov-30 18:00N 27°42' E 138°57'2 2.1
2016-Nov-30 17:00N 27°44' E 138°56'0 0.0
2016-Nov-30 16:00N 27°44' E 138°56'2 0.7
2016-Nov-30 13:00N 27°46' E 138°55'0 0.0
2016-Nov-30 12:00N 27°46' E 138°55'1 0.5
2016-Nov-30 11:00N 27°46' E 138°54'1 0.6
2016-Nov-30 10:00N 27°46' E 138°54'1 0.8
2016-Nov-30 09:00N 27°46' E 138°55'3 0.7
2016-Nov-30 05:00N 27°46' E 138°58'0 0.0
2016-Nov-30 04:00N 27°46' E 138°58'0 0.0
2016-Nov-30 03:00N 27°46' E 138°58'3 1.4
2016-Nov-30 01:00N 27°47' E 139°00'1 0.6
2016-Nov-30 00:00N 27°48' E 139°00'1 0.8
2016-Nov-29 23:00N 27°49' E 139°01'1 0.6
2016-Nov-29 22:00N 27°49' E 139°01'  

Dump ship's entire track history